Time;durP1;ratioP1;P1;durP2;ratioP2;P2;SDS_P1;SDS_P2;PMS_P1;PMS_P2;Temp;Humidity;BMP_temperature;BMP_pressure;BME280_temperature;BME280_humidity;BME280_pressure;Samples;Min_cycle;Max_cycle;Signal;HPM_P1;HPM_P2
2024/01/28 00:00:14;;;;;;;31.73;12.80;;;;;;;;;;5000860;28;20180;-66
2024/01/28 00:02:41;;;;;;;39.03;13.57;;;;;;;;;;4993517;28;20063;-66
2024/01/28 00:05:07;;;;;;;28.30;11.60;;;;;;;;;;4991527;28;20050;-66
2024/01/28 00:07:34;;;;;;;31.98;12.77;;;;;;;;;;4988514;28;20495;-66
2024/01/28 00:10:00;;;;;;;34.55;12.63;;;;;;;;;;4986312;28;20045;-66
2024/01/28 00:12:26;;;;;;;38.13;13.20;;;;;;;;;;4993125;28;20153;-66
2024/01/28 00:14:53;;;;;;;33.95;12.07;;;;;;;;;;4988464;28;20478;-66
2024/01/28 00:17:19;;;;;;;27.70;12.23;;;;;;;;;;4986324;28;20042;-66
2024/01/28 00:19:45;;;;;;;31.08;12.05;;;;;;;;;;4989746;28;20048;-66
2024/01/28 00:22:11;;;;;;;42.08;12.30;;;;;;;;;;5005342;28;20125;-66
2024/01/28 00:24:37;;;;;;;35.30;12.52;;;;;;;;;;4985618;28;20126;-66
2024/01/28 00:27:03;;;;;;;36.15;11.85;;;;;;;;;;4987957;28;20064;-66
2024/01/28 00:29:30;;;;;;;45.53;12.38;;;;;;;;;;5003984;28;20498;-66
2024/01/28 00:31:56;;;;;;;39.25;12.38;;;;;;;;;;4982627;28;20055;-66
2024/01/28 00:34:23;;;;;;;33.53;10.98;;;;;;;;;;4984854;28;20115;-66
2024/01/28 00:36:49;;;;;;;31.55;11.82;;;;;;;;;;4981114;28;20043;-66
2024/01/28 00:39:15;;;;;;;42.70;12.88;;;;;;;;;;4985648;28;20049;-66
2024/01/28 00:41:41;;;;;;;29.15;11.27;;;;;;;;;;4990803;28;20046;-66
2024/01/28 00:44:07;;;;;;;33.40;11.30;;;;;;;;;;4983339;28;20085;-66
2024/01/28 00:46:37;;;;;;;36.95;10.55;;;;;;;;;;4989760;28;20052;-66
2024/01/28 00:49:03;;;;;;;28.40;10.60;;;;;;;;;;4991724;28;20046;-66
2024/01/28 00:51:31;;;;;;;34.83;11.95;;;;;;;;;;4988420;28;20154;-66
2024/01/28 00:53:58;;;;;;;28.98;10.93;;;;;;;;;;4992445;28;20119;-66
2024/01/28 00:56:24;;;;;;;36.75;12.05;;;;;;;;;;4992432;28;20128;-66
2024/01/28 00:58:50;;;;;;;20.10;9.85;;;;;;;;;;4990072;28;20065;-66
2024/01/28 01:01:18;;;;;;;29.85;11.18;;;;;;;;;;4996328;28;20042;-66
2024/01/28 01:03:44;;;;;;;31.58;11.32;;;;;;;;;;4993725;28;20137;-66
2024/01/28 01:06:10;;;;;;;32.85;9.90;;;;;;;;;;4994256;28;20050;-66
2024/01/28 01:08:37;;;;;;;28.88;9.73;;;;;;;;;;4997603;28;20070;-66
2024/01/28 01:11:05;;;;;;;39.40;13.20;;;;;;;;;;4989079;28;20130;-66
2024/01/28 01:13:33;;;;;;;33.13;9.88;;;;;;;;;;4995620;28;20045;-66
2024/01/28 01:15:59;;;;;;;26.33;10.02;;;;;;;;;;4995500;28;20045;-66
2024/01/28 01:18:25;;;;;;;29.15;10.07;;;;;;;;;;4985784;28;20061;-66
2024/01/28 01:20:52;;;;;;;33.03;9.95;;;;;;;;;;4989697;28;20042;-66
2024/01/28 01:23:18;;;;;;;21.60;8.35;;;;;;;;;;4977544;28;20114;-66
2024/01/28 01:25:45;;;;;;;25.00;9.32;;;;;;;;;;4984422;28;20358;-66
2024/01/28 01:28:11;;;;;;;24.65;10.18;;;;;;;;;;4987137;28;20042;-66
2024/01/28 01:30:39;;;;;;;25.65;8.50;;;;;;;;;;4988623;28;20077;-66
2024/01/28 01:33:05;;;;;;;21.50;8.88;;;;;;;;;;4986026;28;20085;-66
2024/01/28 01:35:31;;;;;;;20.83;7.70;;;;;;;;;;4995014;28;20129;-66
2024/01/28 01:37:57;;;;;;;27.55;8.35;;;;;;;;;;4995538;28;20045;-66
2024/01/28 01:40:24;;;;;;;20.80;8.02;;;;;;;;;;4985037;28;20049;-66
2024/01/28 01:42:50;;;;;;;27.58;8.23;;;;;;;;;;4978940;28;20041;-66
2024/01/28 01:45:17;;;;;;;29.30;9.88;;;;;;;;;;4989462;28;20148;-66
2024/01/28 01:47:43;;;;;;;21.40;7.60;;;;;;;;;;5004974;28;20043;-66
2024/01/28 01:50:10;;;;;;;28.58;8.65;;;;;;;;;;4990042;28;20483;-66
2024/01/28 01:52:39;;;;;;;21.30;7.88;;;;;;;;;;4987979;28;20049;-66
2024/01/28 01:55:06;;;;;;;31.60;8.07;;;;;;;;;;4989201;28;20080;-66
2024/01/28 01:57:33;;;;;;;18.73;6.65;;;;;;;;;;4988118;28;20547;-66
2024/01/28 01:59:59;;;;;;;20.23;7.90;;;;;;;;;;4991126;28;20398;-66
2024/01/28 02:02:26;;;;;;;26.90;9.05;;;;;;;;;;4984095;28;20051;-66
2024/01/28 02:04:52;;;;;;;23.75;7.97;;;;;;;;;;4988836;28;20134;-66
2024/01/28 02:07:18;;;;;;;19.23;6.72;;;;;;;;;;4990947;28;20051;-66
2024/01/28 02:09:45;;;;;;;23.92;8.00;;;;;;;;;;4991870;28;20070;-66
2024/01/28 02:12:11;;;;;;;24.42;7.90;;;;;;;;;;4989623;28;20046;-66
2024/01/28 02:14:38;;;;;;;24.75;7.60;;;;;;;;;;4994527;28;20478;-66
2024/01/28 02:17:04;;;;;;;29.63;8.32;;;;;;;;;;4982477;28;20391;-66
2024/01/28 02:19:31;;;;;;;21.13;7.57;;;;;;;;;;4985895;28;20038;-66
2024/01/28 02:21:57;;;;;;;22.42;7.07;;;;;;;;;;4985892;28;20050;-66
2024/01/28 02:24:23;;;;;;;29.70;8.18;;;;;;;;;;4989578;28;20114;-66
2024/01/28 02:26:49;;;;;;;20.55;6.88;;;;;;;;;;4981987;28;20122;-66
2024/01/28 02:29:15;;;;;;;21.95;6.90;;;;;;;;;;4979762;28;20112;-66
2024/01/28 02:31:42;;;;;;;23.88;8.23;;;;;;;;;;4993009;28;20046;-66
2024/01/28 02:34:08;;;;;;;24.02;6.95;;;;;;;;;;4996629;28;20054;-66
2024/01/28 02:36:34;;;;;;;24.30;7.45;;;;;;;;;;4996880;28;20053;-66
2024/01/28 02:39:00;;;;;;;20.70;7.15;;;;;;;;;;4994853;28;20433;-66
2024/01/28 02:41:26;;;;;;;17.65;6.72;;;;;;;;;;4995403;28;20045;-66
2024/01/28 02:43:54;;;;;;;23.30;7.30;;;;;;;;;;4994386;28;20061;-66
2024/01/28 02:46:21;;;;;;;22.23;6.95;;;;;;;;;;4997402;28;20398;-66
2024/01/28 02:48:47;;;;;;;24.08;7.63;;;;;;;;;;4993353;28;20044;-66
2024/01/28 02:51:13;;;;;;;17.60;7.57;;;;;;;;;;4996567;28;20052;-66
2024/01/28 02:53:39;;;;;;;20.67;6.88;;;;;;;;;;5008994;28;20067;-66
2024/01/28 02:56:06;;;;;;;20.88;8.00;;;;;;;;;;4995646;28;20049;-66
2024/01/28 02:58:33;;;;;;;22.83;7.90;;;;;;;;;;4990847;28;20120;-66
2024/01/28 03:00:59;;;;;;;23.17;8.52;;;;;;;;;;4986442;28;20605;-66
2024/01/28 03:03:26;;;;;;;25.42;7.72;;;;;;;;;;4992720;28;20117;-66
2024/01/28 03:05:53;;;;;;;23.00;8.40;;;;;;;;;;4985391;28;20057;-66
2024/01/28 03:08:19;;;;;;;19.67;8.15;;;;;;;;;;4958147;28;20066;-66
2024/01/28 03:10:45;;;;;;;33.40;10.82;;;;;;;;;;4988242;28;20458;-66
2024/01/28 03:13:11;;;;;;;26.05;9.75;;;;;;;;;;4978071;28;20129;-66
2024/01/28 03:15:37;;;;;;;26.80;9.57;;;;;;;;;;4981948;28;20096;-66
2024/01/28 03:18:04;;;;;;;26.02;9.27;;;;;;;;;;4979795;28;20057;-66
2024/01/28 03:20:30;;;;;;;31.00;10.32;;;;;;;;;;4997262;28;20383;-66
2024/01/28 03:22:56;;;;;;;22.95;9.35;;;;;;;;;;4986484;28;20058;-66
2024/01/28 03:25:22;;;;;;;22.73;9.98;;;;;;;;;;4980693;28;20085;-66
2024/01/28 03:27:48;;;;;;;21.05;7.97;;;;;;;;;;4994479;28;20072;-66
2024/01/28 03:30:15;;;;;;;27.90;9.77;;;;;;;;;;4988085;28;20810;-66
2024/01/28 03:32:41;;;;;;;24.35;10.27;;;;;;;;;;4979953;28;20042;-66
2024/01/28 03:35:09;;;;;;;28.77;9.82;;;;;;;;;;4985451;28;20069;-66
2024/01/28 03:37:36;;;;;;;24.88;9.30;;;;;;;;;;5001417;28;20052;-66
2024/01/28 03:40:02;;;;;;;25.33;9.70;;;;;;;;;;4998520;28;20057;-66
2024/01/28 03:42:29;;;;;;;23.40;9.88;;;;;;;;;;4987442;28;20549;-66
2024/01/28 03:44:55;;;;;;;20.75;9.75;;;;;;;;;;4980786;28;20459;-66
2024/01/28 03:47:21;;;;;;;26.08;9.98;;;;;;;;;;4996215;28;20041;-66
2024/01/28 03:49:47;;;;;;;23.30;9.88;;;;;;;;;;4987394;28;20042;-66
2024/01/28 03:52:14;;;;;;;35.50;10.95;;;;;;;;;;4982007;28;20042;-66
2024/01/28 03:54:40;;;;;;;30.92;10.77;;;;;;;;;;4996108;28;20050;-66
2024/01/28 03:57:07;;;;;;;25.55;9.98;;;;;;;;;;4987266;28;20110;-66
2024/01/28 03:59:33;;;;;;;37.53;10.75;;;;;;;;;;4986412;28;20527;-66
2024/01/28 04:01:59;;;;;;;27.63;10.38;;;;;;;;;;4996990;28;20117;-66
2024/01/28 04:04:26;;;;;;;25.45;9.73;;;;;;;;;;4988317;28;20058;-66
2024/01/28 04:06:52;;;;;;;26.05;11.13;;;;;;;;;;4996305;28;20049;-66
2024/01/28 04:09:18;;;;;;;26.60;11.50;;;;;;;;;;4991783;28;20046;-66
2024/01/28 04:11:44;;;;;;;28.73;12.52;;;;;;;;;;4990993;28;20049;-66
2024/01/28 04:14:10;;;;;;;29.77;12.25;;;;;;;;;;4990627;28;20481;-66
2024/01/28 04:16:36;;;;;;;26.70;11.27;;;;;;;;;;5006902;28;20050;-66
2024/01/28 04:19:03;;;;;;;27.85;11.15;;;;;;;;;;5002248;28;20062;-66
2024/01/28 04:21:30;;;;;;;29.38;11.45;;;;;;;;;;4992880;28;20043;-66
2024/01/28 04:23:56;;;;;;;31.30;12.85;;;;;;;;;;4988375;28;20121;-67
2024/01/28 04:26:23;;;;;;;34.17;10.98;;;;;;;;;;5003483;28;20129;-66
2024/01/28 04:28:49;;;;;;;29.30;10.75;;;;;;;;;;4997302;28;20128;-66
2024/01/28 04:31:16;;;;;;;31.05;11.85;;;;;;;;;;4983209;28;20054;-66
2024/01/28 04:33:42;;;;;;;24.52;11.10;;;;;;;;;;4982929;28;20442;-66
2024/01/28 04:36:09;;;;;;;26.90;11.02;;;;;;;;;;4991694;28;20045;-66
2024/01/28 04:38:35;;;;;;;25.70;10.95;;;;;;;;;;4985715;28;20123;-66
2024/01/28 04:41:01;;;;;;;29.92;12.60;;;;;;;;;;4990422;28;20046;-66
2024/01/28 04:43:27;;;;;;;26.52;11.82;;;;;;;;;;4986663;28;21499;-66
2024/01/28 04:45:54;;;;;;;30.15;11.52;;;;;;;;;;4991968;28;20049;-66
2024/01/28 04:48:20;;;;;;;30.77;11.90;;;;;;;;;;4999694;28;20061;-66
2024/01/28 04:50:46;;;;;;;29.02;12.07;;;;;;;;;;5009217;28;20120;-66
2024/01/28 04:53:13;;;;;;;25.83;11.60;;;;;;;;;;4992418;28;20049;-66
2024/01/28 04:55:39;;;;;;;27.60;12.40;;;;;;;;;;5004935;28;20042;-66
2024/01/28 04:58:05;;;;;;;26.05;10.70;;;;;;;;;;4992067;28;20060;-66
2024/01/28 05:00:32;;;;;;;38.13;13.25;;;;;;;;;;5005388;28;20116;-66
2024/01/28 05:02:58;;;;;;;36.53;12.90;;;;;;;;;;4993990;28;20148;-66
2024/01/28 05:05:24;;;;;;;27.13;10.40;;;;;;;;;;4995157;28;20082;-66
2024/01/28 05:07:50;;;;;;;23.13;12.70;;;;;;;;;;5009679;28;20041;-66
2024/01/28 05:10:16;;;;;;;36.25;12.32;;;;;;;;;;5004168;28;20128;-66
2024/01/28 05:12:45;;;;;;;28.00;11.88;;;;;;;;;;4989420;28;20045;-66
2024/01/28 05:15:16;;;;;;;23.60;11.23;;;;;;;;;;4992542;28;20758;-66
2024/01/28 05:17:42;;;;;;;28.67;11.20;;;;;;;;;;4989708;28;20047;-66
2024/01/28 05:20:09;;;;;;;32.30;11.80;;;;;;;;;;4999022;28;20042;-66
2024/01/28 05:22:35;;;;;;;25.27;11.40;;;;;;;;;;4989901;28;20038;-66
2024/01/28 05:25:02;;;;;;;27.38;12.10;;;;;;;;;;5005243;28;20038;-66
2024/01/28 05:27:29;;;;;;;26.77;12.32;;;;;;;;;;4994030;28;20473;-66
2024/01/28 05:29:58;;;;;;;36.33;12.05;;;;;;;;;;4993754;28;20447;-66
2024/01/28 05:32:26;;;;;;;35.72;12.10;;;;;;;;;;5003536;28;20150;-66
2024/01/28 05:34:52;;;;;;;30.23;12.30;;;;;;;;;;4991259;28;20046;-66
2024/01/28 05:37:18;;;;;;;27.70;12.95;;;;;;;;;;4988324;28;20373;-66
2024/01/28 05:39:44;;;;;;;28.45;13.35;;;;;;;;;;5003271;28;20046;-66
2024/01/28 05:42:10;;;;;;;30.65;12.57;;;;;;;;;;4991781;28;20107;-66
2024/01/28 05:44:37;;;;;;;28.17;12.25;;;;;;;;;;4996818;28;20078;-66
2024/01/28 05:47:03;;;;;;;24.40;13.00;;;;;;;;;;4989147;28;20382;-66
2024/01/28 05:49:29;;;;;;;35.03;12.77;;;;;;;;;;4988879;28;20050;-66
2024/01/28 05:51:55;;;;;;;20.13;12.65;;;;;;;;;;4994650;28;20069;-66
2024/01/28 05:54:22;;;;;;;24.48;12.55;;;;;;;;;;4988604;28;20049;-66
2024/01/28 05:56:48;;;;;;;26.88;12.77;;;;;;;;;;4982418;28;20049;-66
2024/01/28 05:59:14;;;;;;;35.58;13.80;;;;;;;;;;4986896;28;20046;-66
2024/01/28 06:01:40;;;;;;;22.35;11.75;;;;;;;;;;4989858;28;20124;-66
2024/01/28 06:04:09;;;;;;;29.95;11.90;;;;;;;;;;4986837;28;20398;-66
2024/01/28 06:06:35;;;;;;;23.48;12.65;;;;;;;;;;4988657;28;20053;-66
2024/01/28 06:09:01;;;;;;;22.80;12.52;;;;;;;;;;4998589;28;20129;-66
2024/01/28 06:11:28;;;;;;;27.30;13.70;;;;;;;;;;5013014;28;20041;-66
2024/01/28 06:13:54;;;;;;;27.73;12.27;;;;;;;;;;4997084;28;20042;-66
2024/01/28 06:16:21;;;;;;;34.47;12.85;;;;;;;;;;5003182;28;20207;-66
2024/01/28 06:18:47;;;;;;;24.52;12.15;;;;;;;;;;4992212;28;20064;-66
2024/01/28 06:21:13;;;;;;;27.90;12.45;;;;;;;;;;5004484;28;20039;-66
2024/01/28 06:23:41;;;;;;;29.33;13.55;;;;;;;;;;5013296;28;20369;-66
2024/01/28 06:26:07;;;;;;;27.85;12.35;;;;;;;;;;5012908;28;20045;-66
2024/01/28 06:28:34;;;;;;;26.85;13.35;;;;;;;;;;4996673;28;20057;-66
2024/01/28 06:31:00;;;;;;;21.63;12.30;;;;;;;;;;4998655;28;20062;-66
2024/01/28 06:33:28;;;;;;;27.83;13.50;;;;;;;;;;4993891;28;20496;-66
2024/01/28 06:35:54;;;;;;;24.17;12.45;;;;;;;;;;4997346;28;20061;-66
2024/01/28 06:38:20;;;;;;;33.65;15.38;;;;;;;;;;5009406;28;21428;-66
2024/01/28 06:40:47;;;;;;;30.08;13.43;;;;;;;;;;4997115;28;20525;-66
2024/01/28 06:43:13;;;;;;;30.83;12.30;;;;;;;;;;5015414;28;20044;-66
2024/01/28 06:45:39;;;;;;;26.83;11.65;;;;;;;;;;5005700;28;20071;-66
2024/01/28 06:48:05;;;;;;;28.38;12.38;;;;;;;;;;4999918;28;20050;-66
2024/01/28 06:50:31;;;;;;;23.33;12.73;;;;;;;;;;4991682;28;20334;-66
2024/01/28 06:53:01;;;;;;;33.00;13.48;;;;;;;;;;5007030;28;20038;-66
2024/01/28 06:55:27;;;;;;;35.47;13.93;;;;;;;;;;5003504;28;20115;-66
2024/01/28 06:57:53;;;;;;;28.40;13.20;;;;;;;;;;4993902;28;20046;-66
2024/01/28 07:00:20;;;;;;;25.08;12.43;;;;;;;;;;4984765;28;20390;-66
2024/01/28 07:02:46;;;;;;;28.85;12.45;;;;;;;;;;4962668;28;20896;-67
2024/01/28 07:05:15;;;;;;;30.38;12.52;;;;;;;;;;4994357;28;20509;-67
2024/01/28 07:07:42;;;;;;;31.85;12.32;;;;;;;;;;4990198;28;20050;-66
2024/01/28 07:10:09;;;;;;;23.08;12.80;;;;;;;;;;4985429;28;20104;-66
2024/01/28 07:12:35;;;;;;;21.15;12.07;;;;;;;;;;4997812;28;20545;-68
2024/01/28 07:15:01;;;;;;;25.83;11.65;;;;;;;;;;4991371;28;20046;-66
2024/01/28 07:17:28;;;;;;;23.15;12.15;;;;;;;;;;5008050;28;20089;-66
2024/01/28 07:19:54;;;;;;;31.92;13.13;;;;;;;;;;4987790;28;20458;-66
2024/01/28 07:22:20;;;;;;;21.00;11.90;;;;;;;;;;4989947;28;20057;-66
2024/01/28 07:24:46;;;;;;;22.25;11.15;;;;;;;;;;4999340;28;20483;-66
2024/01/28 07:27:12;;;;;;;25.58;11.70;;;;;;;;;;4987687;28;20042;-66
2024/01/28 07:29:39;;;;;;;29.00;12.27;;;;;;;;;;4979906;28;20080;-66
2024/01/28 07:32:05;;;;;;;27.42;12.40;;;;;;;;;;4981485;28;20379;-66
2024/01/28 07:34:31;;;;;;;21.67;10.02;;;;;;;;;;4987148;28;20041;-66
2024/01/28 07:36:58;;;;;;;26.35;11.52;;;;;;;;;;4996581;28;20038;-66
2024/01/28 07:39:26;;;;;;;22.65;10.85;;;;;;;;;;4987944;28;20401;-66
2024/01/28 07:41:52;;;;;;;23.25;10.93;;;;;;;;;;4991438;28;20044;-66
2024/01/28 07:44:19;;;;;;;30.50;10.10;;;;;;;;;;4989386;28;20096;-66
2024/01/28 07:46:46;;;;;;;26.08;9.77;;;;;;;;;;4998150;28;20117;-67
2024/01/28 07:49:13;;;;;;;24.00;10.18;;;;;;;;;;4995325;28;20046;-71
2024/01/28 07:51:39;;;;;;;25.58;9.70;;;;;;;;;;4987628;28;20046;-66
2024/01/28 07:54:05;;;;;;;23.10;9.85;;;;;;;;;;4986911;28;20430;-67
2024/01/28 07:56:32;;;;;;;24.30;10.32;;;;;;;;;;4977915;28;20042;-66
2024/01/28 07:58:58;;;;;;;22.17;9.65;;;;;;;;;;4980587;28;20130;-66
2024/01/28 08:01:26;;;;;;;28.27;9.00;;;;;;;;;;4999320;28;20541;-66
2024/01/28 08:03:52;;;;;;;17.45;8.65;;;;;;;;;;4988266;28;20081;-68
2024/01/28 08:06:18;;;;;;;21.50;9.60;;;;;;;;;;4987998;28;20038;-66
2024/01/28 08:08:45;;;;;;;18.55;8.88;;;;;;;;;;4989897;28;20045;-66
2024/01/28 08:11:11;;;;;;;20.95;9.48;;;;;;;;;;4997463;28;20061;-66
2024/01/28 08:13:37;;;;;;;20.08;8.65;;;;;;;;;;4989667;28;20442;-66
2024/01/28 08:16:03;;;;;;;19.45;8.90;;;;;;;;;;4989102;28;20112;-66
2024/01/28 08:18:30;;;;;;;25.48;10.95;;;;;;;;;;4995420;28;20123;-66
2024/01/28 08:20:56;;;;;;;24.48;9.20;;;;;;;;;;4987682;28;20103;-66
2024/01/28 08:23:22;;;;;;;17.33;8.95;;;;;;;;;;4999067;28;20118;-68
2024/01/28 08:25:48;;;;;;;23.98;9.43;;;;;;;;;;4982993;28;20046;-66
2024/01/28 08:28:15;;;;;;;23.40;9.55;;;;;;;;;;4997074;28;20038;-66
2024/01/28 08:30:41;;;;;;;21.48;8.63;;;;;;;;;;4995649;28;20668;-66
2024/01/28 08:33:07;;;;;;;22.27;8.85;;;;;;;;;;4999803;28;20041;-66
2024/01/28 08:35:33;;;;;;;28.58;12.77;;;;;;;;;;4985477;28;20038;-66
2024/01/28 08:37:59;;;;;;;20.60;9.70;;;;;;;;;;5001997;28;20042;-66
2024/01/28 08:40:26;;;;;;;23.25;9.27;;;;;;;;;;4985471;28;20045;-74
2024/01/28 08:42:53;;;;;;;15.25;7.55;;;;;;;;;;4994660;28;20050;-66
2024/01/28 08:45:20;;;;;;;17.77;8.48;;;;;;;;;;4989242;28;20046;-66
2024/01/28 08:47:47;;;;;;;18.67;8.90;;;;;;;;;;4981683;28;20061;-66
2024/01/28 08:50:13;;;;;;;23.67;10.70;;;;;;;;;;4998356;28;20405;-67
2024/01/28 08:52:39;;;;;;;15.32;7.45;;;;;;;;;;4999441;28;20038;-66
2024/01/28 08:55:06;;;;;;;18.13;8.07;;;;;;;;;;4996726;28;20046;-69
2024/01/28 08:57:32;;;;;;;18.50;7.07;;;;;;;;;;4962881;28;20094;-66
2024/01/28 08:59:58;;;;;;;23.55;8.20;;;;;;;;;;4987796;28;20049;-66
2024/01/28 09:02:24;;;;;;;18.73;7.43;;;;;;;;;;4989642;28;20053;-66
2024/01/28 09:04:51;;;;;;;18.70;6.75;;;;;;;;;;4988634;28;20046;-66
2024/01/28 09:07:17;;;;;;;14.52;7.05;;;;;;;;;;5000926;28;20073;-66
2024/01/28 09:09:43;;;;;;;20.77;7.68;;;;;;;;;;4987029;28;20574;-66
2024/01/28 09:12:09;;;;;;;19.27;7.43;;;;;;;;;;5002515;28;20061;-66
2024/01/28 09:14:36;;;;;;;17.17;6.88;;;;;;;;;;4999826;28;20038;-66
2024/01/28 09:17:03;;;;;;;17.63;7.20;;;;;;;;;;4997959;28;20042;-66
2024/01/28 09:19:29;;;;;;;16.52;6.93;;;;;;;;;;4999620;28;20038;-66
2024/01/28 09:21:56;;;;;;;13.05;6.03;;;;;;;;;;5001638;28;21540;-66
2024/01/28 09:24:22;;;;;;;15.50;6.60;;;;;;;;;;4988202;28;20052;-66
2024/01/28 09:26:48;;;;;;;19.35;7.40;;;;;;;;;;4999139;28;20137;-66
2024/01/28 09:29:15;;;;;;;30.25;7.72;;;;;;;;;;4991494;28;20088;-66
2024/01/28 09:31:46;;;;;;;27.73;7.60;;;;;;;;;;5003967;28;20046;-66
2024/01/28 09:34:12;;;;;;;30.63;7.78;;;;;;;;;;4990492;28;20446;-66
2024/01/28 09:36:38;;;;;;;20.05;6.78;;;;;;;;;;4991435;28;20050;-66
2024/01/28 09:39:05;;;;;;;19.35;7.28;;;;;;;;;;4990947;28;20390;-66
2024/01/28 09:41:37;;;;;;;20.05;6.80;;;;;;;;;;4972532;28;20042;-66
2024/01/28 09:44:04;;;;;;;18.17;7.78;;;;;;;;;;4992537;28;20088;-66
2024/01/28 09:46:31;;;;;;;16.45;6.43;;;;;;;;;;4996950;28;20041;-66
2024/01/28 09:48:58;;;;;;;16.92;6.30;;;;;;;;;;4997381;28;20398;-66
2024/01/28 09:51:25;;;;;;;12.63;6.20;;;;;;;;;;4983317;28;20050;-66
2024/01/28 09:53:51;;;;;;;11.38;5.85;;;;;;;;;;5007354;28;20038;-66
2024/01/28 09:56:17;;;;;;;13.23;6.38;;;;;;;;;;5000177;28;20050;-66
2024/01/28 09:58:44;;;;;;;16.95;7.25;;;;;;;;;;4989073;28;20117;-66
2024/01/28 10:01:11;;;;;;;15.98;6.35;;;;;;;;;;4986117;28;20092;-66
2024/01/28 10:03:37;;;;;;;13.25;6.00;;;;;;;;;;4999046;28;20052;-66
2024/01/28 10:06:04;;;;;;;15.48;5.70;;;;;;;;;;5000363;28;20501;-66
2024/01/28 10:08:31;;;;;;;16.50;5.82;;;;;;;;;;4986253;28;20125;-66
2024/01/28 10:10:57;;;;;;;15.07;6.57;;;;;;;;;;4998396;28;20038;-66
2024/01/28 10:13:23;;;;;;;19.42;7.13;;;;;;;;;;4986980;28;20042;-66
2024/01/28 10:15:57;;;;;;;16.20;5.43;;;;;;;;;;4997050;28;20105;-66
2024/01/28 10:18:24;;;;;;;15.38;7.03;;;;;;;;;;4987070;28;20224;-66
2024/01/28 10:20:50;;;;;;;13.98;5.22;;;;;;;;;;4998592;28;20042;-66
2024/01/28 10:23:18;;;;;;;20.15;6.93;;;;;;;;;;4977877;28;20054;-66
2024/01/28 10:25:44;;;;;;;19.27;6.57;;;;;;;;;;4986765;28;20061;-66
2024/01/28 10:28:11;;;;;;;13.68;6.00;;;;;;;;;;4985918;28;20547;-66
2024/01/28 10:30:37;;;;;;;16.08;6.18;;;;;;;;;;4985398;28;20073;-66
2024/01/28 10:33:04;;;;;;;14.98;5.95;;;;;;;;;;4985104;28;20054;-66
2024/01/28 10:35:30;;;;;;;17.77;6.10;;;;;;;;;;4997910;28;20116;-66
2024/01/28 10:37:58;;;;;;;15.75;6.28;;;;;;;;;;4997881;28;20132;-66
2024/01/28 10:40:29;;;;;;;13.32;5.43;;;;;;;;;;4984090;28;20053;-66
2024/01/28 10:42:56;;;;;;;15.05;5.90;;;;;;;;;;4977289;28;20132;-66
2024/01/28 10:45:23;;;;;;;20.92;7.72;;;;;;;;;;4985227;28;20096;-66
2024/01/28 10:47:52;;;;;;;14.23;5.88;;;;;;;;;;4977751;28;20095;-66
2024/01/28 10:50:20;;;;;;;13.40;5.25;;;;;;;;;;5000661;28;20046;-66
2024/01/28 10:52:47;;;;;;;13.63;5.63;;;;;;;;;;4982356;28;20498;-65
2024/01/28 10:55:15;;;;;;;15.95;6.85;;;;;;;;;;4988313;28;20057;-65
2024/01/28 10:57:42;;;;;;;13.60;5.50;;;;;;;;;;4987187;28;20041;-71
2024/01/28 11:00:13;;;;;;;14.60;5.15;;;;;;;;;;4985597;28;20048;-73
2024/01/28 11:02:40;;;;;;;13.05;5.18;;;;;;;;;;4985169;28;20064;-66
2024/01/28 11:05:07;;;;;;;15.98;5.30;;;;;;;;;;4981535;28;20068;-66
2024/01/28 11:07:33;;;;;;;14.55;6.05;;;;;;;;;;4989185;28;20100;-66
2024/01/28 11:09:59;;;;;;;26.08;8.13;;;;;;;;;;4986512;28;20125;-66
2024/01/28 11:12:28;;;;;;;20.02;5.85;;;;;;;;;;4992877;28;20054;-68
2024/01/28 11:14:54;;;;;;;14.02;5.45;;;;;;;;;;4985983;28;20042;-66
2024/01/28 11:17:22;;;;;;;17.73;5.97;;;;;;;;;;5001169;28;20042;-66
2024/01/28 11:19:48;;;;;;;16.73;5.80;;;;;;;;;;4985593;28;20501;-67
2024/01/28 11:22:15;;;;;;;10.05;4.85;;;;;;;;;;4992239;28;20041;-66
2024/01/28 11:24:49;;;;;;;14.60;5.15;;;;;;;;;;4990634;28;20397;-66
2024/01/28 11:27:15;;;;;;;11.82;4.82;;;;;;;;;;4990072;28;20385;-66
2024/01/28 11:29:44;;;;;;;14.20;5.07;;;;;;;;;;5007689;28;20080;-66
2024/01/28 11:32:10;;;;;;;14.68;4.93;;;;;;;;;;4989077;28;20119;-66
2024/01/28 11:34:36;;;;;;;11.88;4.18;;;;;;;;;;5003346;28;20125;-67
2024/01/28 11:37:05;;;;;;;12.93;4.55;;;;;;;;;;4987349;28;20406;-66
2024/01/28 11:39:37;;;;;;;13.77;4.55;;;;;;;;;;4998025;28;20080;-66
2024/01/28 11:42:04;;;;;;;13.48;4.15;;;;;;;;;;4994818;28;20045;-66
2024/01/28 11:44:30;;;;;;;13.05;4.20;;;;;;;;;;4982039;28;21625;-66
2024/01/28 11:46:56;;;;;;;11.75;3.88;;;;;;;;;;4982510;28;20056;-66
2024/01/28 11:49:23;;;;;;;10.50;3.05;;;;;;;;;;4980484;28;20041;-66
2024/01/28 11:51:49;;;;;;;13.85;4.13;;;;;;;;;;4978549;28;20136;-66
2024/01/28 11:54:15;;;;;;;10.07;3.53;;;;;;;;;;4962448;28;20125;-66
2024/01/28 11:56:41;;;;;;;12.73;3.67;;;;;;;;;;4978674;28;20050;-67
2024/01/28 11:59:07;;;;;;;10.82;3.80;;;;;;;;;;4979365;28;20373;-66
2024/01/28 12:01:34;;;;;;;9.48;3.72;;;;;;;;;;4993398;28;20046;-66
2024/01/28 12:04:00;;;;;;;10.60;3.97;;;;;;;;;;4994193;28;20093;-67
2024/01/28 12:06:30;;;;;;;14.00;4.63;;;;;;;;;;4991548;28;20041;-67
2024/01/28 12:08:57;;;;;;;8.15;2.92;;;;;;;;;;4985691;28;20112;-66
2024/01/28 12:11:25;;;;;;;9.13;3.63;;;;;;;;;;4998040;28;20137;-66
2024/01/28 12:13:51;;;;;;;13.00;4.40;;;;;;;;;;4997687;28;20072;-66
2024/01/28 12:16:19;;;;;;;8.93;3.42;;;;;;;;;;4986938;28;20045;-66
2024/01/28 12:18:45;;;;;;;8.73;3.70;;;;;;;;;;4999626;28;20045;-66
2024/01/28 12:21:22;;;;;;;11.23;3.90;;;;;;;;;;4979782;28;20419;-67
2024/01/28 12:23:49;;;;;;;8.35;3.28;;;;;;;;;;4998690;28;20038;-67
2024/01/28 12:26:16;;;;;;;10.10;3.70;;;;;;;;;;4994545;28;20463;-67
2024/01/28 12:28:43;;;;;;;11.10;4.13;;;;;;;;;;4985710;28;20394;-66
2024/01/28 12:31:10;;;;;;;8.02;3.70;;;;;;;;;;4983744;28;20050;-66
2024/01/28 12:33:36;;;;;;;9.27;3.72;;;;;;;;;;4976971;28;20057;-67
2024/01/28 12:36:02;;;;;;;9.18;3.42;;;;;;;;;;4985447;28;20048;-67
2024/01/28 12:38:29;;;;;;;8.15;3.30;;;;;;;;;;4984536;28;20102;-67
2024/01/28 12:40:56;;;;;;;7.95;2.90;;;;;;;;;;4996472;28;20058;-67
2024/01/28 12:43:22;;;;;;;10.27;3.58;;;;;;;;;;4980012;28;20137;-66
2024/01/28 12:45:48;;;;;;;7.43;3.25;;;;;;;;;;4994146;28;20517;-68
2024/01/28 12:48:14;;;;;;;8.35;4.15;;;;;;;;;;4998332;28;20042;-67
2024/01/28 12:50:41;;;;;;;8.45;3.42;;;;;;;;;;4983353;28;20112;-66
2024/01/28 12:53:07;;;;;;;12.73;3.60;;;;;;;;;;4985312;28;20510;-66
2024/01/28 12:55:33;;;;;;;9.02;3.97;;;;;;;;;;4983893;28;20045;-66
2024/01/28 12:57:59;;;;;;;7.82;3.50;;;;;;;;;;4996756;28;20046;-66
2024/01/28 13:00:26;;;;;;;8.30;3.30;;;;;;;;;;4988970;28;20463;-66
2024/01/28 13:02:52;;;;;;;9.65;3.42;;;;;;;;;;4997757;28;20038;-66
2024/01/28 13:05:18;;;;;;;8.88;3.20;;;;;;;;;;4997985;28;20685;-66
2024/01/28 13:07:44;;;;;;;8.48;2.92;;;;;;;;;;4981134;28;20042;-66
2024/01/28 13:10:10;;;;;;;8.10;3.13;;;;;;;;;;4997413;28;20058;-66
2024/01/28 13:12:38;;;;;;;7.18;3.10;;;;;;;;;;4986760;28;20034;-66
2024/01/28 13:15:07;;;;;;;9.73;2.90;;;;;;;;;;4995544;28;20351;-66
2024/01/28 13:17:34;;;;;;;9.85;3.45;;;;;;;;;;4997054;28;20046;-66
2024/01/28 13:20:00;;;;;;;9.57;3.38;;;;;;;;;;4989245;28;20066;-67
2024/01/28 13:22:26;;;;;;;7.55;3.17;;;;;;;;;;4989477;28;20054;-66
2024/01/28 13:24:53;;;;;;;8.23;3.30;;;;;;;;;;4987934;28;20517;-66
2024/01/28 13:27:20;;;;;;;5.70;3.03;;;;;;;;;;5002048;28;20050;-66
2024/01/28 13:29:46;;;;;;;9.13;2.80;;;;;;;;;;5003984;28;20522;-66
2024/01/28 13:32:13;;;;;;;9.13;3.00;;;;;;;;;;4995634;28;20296;-66
2024/01/28 13:34:39;;;;;;;10.50;3.00;;;;;;;;;;4964191;28;20050;-66
2024/01/28 13:37:06;;;;;;;8.38;3.35;;;;;;;;;;4994837;28;20097;-66
2024/01/28 13:39:32;;;;;;;6.30;3.05;;;;;;;;;;4988285;28;20053;-66
2024/01/28 13:41:58;;;;;;;11.05;3.22;;;;;;;;;;4986196;28;20050;-66
2024/01/28 13:44:24;;;;;;;7.60;2.75;;;;;;;;;;4993944;28;20118;-66
2024/01/28 13:46:50;;;;;;;9.43;3.50;;;;;;;;;;4997698;28;20065;-66
2024/01/28 13:49:17;;;;;;;6.90;3.22;;;;;;;;;;4984695;28;20099;-66
2024/01/28 13:51:43;;;;;;;5.82;3.08;;;;;;;;;;4978177;28;20346;-66
2024/01/28 13:54:09;;;;;;;10.48;3.15;;;;;;;;;;4987669;28;20366;-66
2024/01/28 13:56:35;;;;;;;7.32;2.80;;;;;;;;;;4987995;28;20049;-67
2024/01/28 13:59:02;;;;;;;8.45;3.20;;;;;;;;;;5009218;28;20061;-66
2024/01/28 14:01:28;;;;;;;9.20;3.00;;;;;;;;;;5007418;28;20049;-66
2024/01/28 14:03:55;;;;;;;7.28;3.40;;;;;;;;;;4987337;28;20551;-66
2024/01/28 14:06:21;;;;;;;9.02;3.40;;;;;;;;;;5005753;28;20117;-66
2024/01/28 14:08:47;;;;;;;7.45;3.20;;;;;;;;;;5004609;28;20065;-66
2024/01/28 14:11:14;;;;;;;8.00;2.95;;;;;;;;;;5004006;28;20049;-66
2024/01/28 14:13:40;;;;;;;8.05;2.70;;;;;;;;;;4991491;28;20072;-66
2024/01/28 14:16:06;;;;;;;8.75;3.15;;;;;;;;;;4985543;28;20518;-66
2024/01/28 14:18:33;;;;;;;7.97;3.25;;;;;;;;;;4988722;28;20047;-66
2024/01/28 14:20:59;;;;;;;10.52;3.20;;;;;;;;;;5002372;28;20107;-66